MapTableWeb Map

Choose a state:
Locations above flood stage
(65 streamgages are currently reporting water levels above the National Weather Service defined flood stage)
USGS
station
ID
USGS station name NWS
flood
stage
(ft)
Most recent
stage
(ft)
Most recent
flow
(cfs)
Historical
peaks
(cfs)
Most recent
local
date/time
NWS
station
ID
02244040ST. JOHNS R AT BUFFALO BLUFF NEAR SATSUMA, FL 2.5 11.47 2,060 26,300 2016-02-07 06:15:00 PALF1
07288700BIG SUNFLOWER RIVER NR ANGUILLA, MS 45 89.09

 

  2016-02-07 05:00:00 ANGM6
02171700SANTEE RIVER NR JAMESTOWN, SC 10 13.00 24,000 89,500 2016-02-07 06:30:00 JAMS1
07074850White River near Augusta, AR 26 31.41 50,400 262,000 2016-02-07 05:00:00 AUGA4
02244440DUNNS CREEK NEAR SATSUMA, FL 2.5 11.64 -348 10,600 2016-02-07 06:00:00 DNSF1
05056665EASTERN STUMP LAKE NR LAKOTA, ND 0.1 50.06

 

2016-02-07 05:15:00 ESLN8
02197500SAVANNAH R AT BURTONS FERRY BR NR MILLHAVEN, GA 15 16.11 23,200 220,000 2016-02-07 07:00:00 BFYG1
02198500SAVANNAH RIVER NEAR CLYO, GA 11 16.29 36,400 270,000 2016-02-07 06:00:00 CLYG1
08055500Elm Fk Trinity Rv nr Carrollton, TX 8 8.39 6,910 145,000 2016-02-07 05:15:00 CART2
05056500DEVILS LAKE NR DEVILS LAKE, ND 0.1 50.05

 

2016-02-07 05:00:00 DCBN8
07076750 White River at Georgetown, AR 21 21.37 62,600 179,000 2016-02-07 05:00:00 GEOA4
02489500Pearl River near Bogalusa, LA 18 20.16 27,200 129,000 2016-02-07 05:00:00 BXAL1
06400000HAT CR NEAR EDGEMONT,SD 16 24.10 Ice 15,800 2016-02-07 04:45:00 HATS2
02481880PEARL RIVER AT BURNSIDE, MS 13 13.76 3,820 76,600 2016-02-07 05:45:00 PLAM6
02482550PEARL RIVER NR CARTHAGE, MS 17 22.12 16,000 102,000 2016-02-07 05:45:00 CARM6
02482000PEARL RIVER AT EDINBURG, MS 20 23.76 11,600 77,900 2016-02-07 05:45:00 ENBM6
02246500ST. JOHNS RIVER AT JACKSONVILLE, FL 2.5 11.72 -35,900 120,000 2016-02-07 06:15:00 SJLF1
02488500PEARL RIVER NR MONTICELLO, MS 22 26.20 40,800 122,000 2016-02-07 05:15:00 MTCM6
02448000NOXUBEE RIVER AT MACON, MS 26 27.88 6,960 125,000 2016-02-07 06:00:00 MCNM6
02486000PEARL RIVER AT JACKSON, MS 28 31.43 30,200 128,000 2016-02-07 05:30:00 JACM6
02439400BUTTAHATCHEE RIVER NR ABERDEEN, MS 13 13.75 5,180 80,000 2016-02-07 05:30:00 ABDM6
02134170LUMBER RIVER AT LUMBERTON, NC 13 14.14 2,210 7,420 2016-02-07 06:45:00 LUMN7
02243960OCKLAWAHA R AT RODMAN DAM NEAR ORANGE SPRINGS, FL 5 5.84 2,820 9,560 2016-02-07 06:00:00 RODF1
02492600Pearl River at Pearl River, LA 14 14.73

 

230,000 2016-02-07 05:00:00 PERL1
02365200CHOCTAWHATCHEE RIVER NR PITTMAN, FLA. 21 23.22 25,300 64,700 2016-02-07 05:15:00 PITF1
02224940ALTAMAHA RIVER AT US 221, NR CHARLOTTEVILLE, GA 15 15.81 39,000 210,000 2016-02-07 06:45:00 CHRG1
02365500CHOCTAWHATCHEE RIVER AT CARYVILLE, FLA. 12 13.65 26,800 206,000 2016-02-07 05:00:00 CARF1
02483500PEARL RIVER NR LENA, MS 24 24.09 22,100 122,000 2016-02-07 05:30:00 GDHM6
023177483WITHLACOOCHEE RIVER AT MCMILLAN RD,NEAR BEMISS, GA 15 18.25 8,180 37,500 2016-02-07 06:30:00 VDSG1
02175000EDISTO RIVER NR GIVHANS, SC 10 12.52 9,730 24,900 2016-02-07 06:00:00 GIVS1
02201230OGEECHEE RIVER AT MIDVILLE, GA 6 6.06 3,910 59,000 2016-02-07 06:00:00 MDVG1
02203000CANOOCHEE RIVER NEAR CLAXTON, GA 11 12.50 4,870 20,500 2016-02-07 06:15:00 CNOG1
02108000NORTHEAST CAPE FEAR RIVER NEAR CHINQUAPIN, NC 13 14.94 7,040 30,700 2016-02-07 07:00:00 CHIN7
02470050TOMBIGBEE RIVER AT STEAMPLANT NR LEROY, AL 24 25.94

 

2016-02-07 06:00:00 LRYA1
0208111310CASHIE RIVER AT SR1257 NEAR WINDSOR, NC 8 9.40 1,810 15,700 2016-02-07 06:15:00 WNDN7
02173500NORTH FORK EDISTO RIVER AT ORANGEBURG, SC 8 8.03 1,520 10,000 2016-02-07 07:00:00 ORBS1
02226362SATILLA RIVER AT GA 158, NEAR WAYCROSS, GA 14 18.82 13,100 34,500 2016-02-07 07:00:00 TMOG1
02130980BLACK CREEK NEAR QUINBY, SC 10 11.25 1,700 6,450 2016-02-07 07:00:00 BCRS1
02317755WITHLACOOCHEE RIVER AT US 41 NEAR VALDOSTA, GA 15 17.19

 

38,000 2016-02-07 06:30:00 VDRG1
02484650PEARL RIVER AT RATLIFF`S FERRY NR RATLIFF, MS 303 303.47

 

30,100 2016-02-07 05:15:00 RATM6
02091500CONTENTNEA CREEK AT HOOKERTON, NC 13 13.83 3,650 31,900 2016-02-07 06:00:00 HOKN7
02350900KINCHAFOONEE CREEK AT PINEWOOD ROAD, NR DAWSON, GA 13 13.39 3,140 29,500 2016-02-07 06:45:00 DSNG1
02092500TRENT RIVER NEAR TRENTON, NC 14 15.83 3,480 15,000 2016-02-07 06:45:00 TNTN7
02135000LITTLE PEE DEE R. AT GALIVANTS FERRY, SC 9 9.75 9,990 27,600 2016-02-07 07:00:00 GALS1
02226160ALTAMAHA RIVER NEAR EVERETT CITY, GA 12 12.73 40,500 300,000 2016-02-07 06:15:00 EVRG1
02227500LITTLE SATILLA RIVER NEAR OFFERMAN, GA 9 11.68 7,440 38,000 2016-02-07 06:45:00 OFFG1
02049500BLACKWATER RIVER NEAR FRANKLIN, VA 10.8 11.91 4,860 23,000 2016-02-07 06:45:00 FKNV2
02484500YOCKANOOKANY RIVER NR OFAHOMA, MS 19 19.32 3,810 46,500 2016-02-07 05:45:00 OFAM6
02366500CHOCTAWHATCHEE RIVER NR BRUCE, FLA. 13 14.53 21,300 220,000 2016-02-07 05:45:00 BRUF1
02089500NEUSE RIVER AT KINSTON, NC 14 14.86 7,970 39,000 2016-02-07 06:30:00 KINN7
02489000PEARL RIVER NR COLUMBIA, MS 17 18.61 36,200 165,000 2016-02-07 05:15:00 CLMM6
02136000BLACK RIVER AT KINGSTREE, SC 12 12.93 7,190 58,000 2016-02-07 07:00:00 KINS1
02215260OCMULGEE RIVER AT ABBEVILLE, GA 12 12.32 16,200 100,000 2016-02-07 06:45:00 ABBG1
0209205053SWIFT CREEK AT HWY 43 NR STREETS FERRY, NC 4 4.89

 

10,900 2016-02-07 07:00:00 SWFN7
02108566NORTHEAST CAPE FEAR R NR BURGAW, NC 10 11.93

 

6,830 2016-02-07 07:00:00 BGWN7
02223248OCONEE RIVER NEAR OCONEE, GA 17 17.28 14,300 96,900 2016-02-07 07:00:00 OCNG1
03304300OHIO RIVER AT NEWBURGH LOCK AND DAM, IN 38 38.88

 

  2016-02-07 05:00:00 NBGI3
02083500TAR RIVER AT TARBORO, NC 19 21.51 13,000 70,600 2016-02-07 06:15:00 TARN7
02084000TAR RIVER AT GREENVILLE, NC 13 14.30 11,300 73,000 2016-02-07 05:45:00 PGVN7
02047000NOTTOWAY RIVER NEAR SEBRELL, VA 16 17.06 7,070 48,000 2016-02-07 06:15:00 SEBV2
07289350BIG BLACK RIVER AT WEST, MS 15 16.78 4,510 71,200 2016-02-07 05:45:00 WSTM6
02318500WITHLACOOCHEE RIVER AT US 84, NEAR QUITMAN, GA 19 19.83 7,920 62,000 2016-02-07 06:00:00 QUTG1
02226500SATILLA RIVER NEAR WAYCROSS, GA 16 16.92 9,210 42,100 2016-02-07 06:45:00 AYSG1
02089000NEUSE RIVER NEAR GOLDSBORO, NC 18 18.12 9,390 38,600 2016-02-07 06:15:00 GLDN7
02428400ALABAMA RIVER AT CLAIBORNE L&D NEAR MONROEVILLE 42 42.09 85,100 255,000 2016-02-07 05:00:00 CLBA1